sensor_id;sensor_type;location;lat;lon;timestamp;P1;durP1;ratioP1;P2;durP2;ratioP2
19877;SDS011;10101;52.204;9.910;2023-05-07T00:00:18;29.67;;;16.93;;
19877;SDS011;10101;52.204;9.910;2023-05-07T00:02:45;32.33;;;18.37;;
19877;SDS011;10101;52.204;9.910;2023-05-07T00:05:13;32.83;;;18.77;;
19877;SDS011;10101;52.204;9.910;2023-05-07T00:07:40;30.50;;;18.83;;
19877;SDS011;10101;52.204;9.910;2023-05-07T00:10:07;34.53;;;18.97;;
19877;SDS011;10101;52.204;9.910;2023-05-07T00:12:34;33.87;;;19.27;;
19877;SDS011;10101;52.204;9.910;2023-05-07T00:15:02;32.10;;;17.83;;
19877;SDS011;10101;52.204;9.910;2023-05-07T00:17:29;32.93;;;18.30;;
19877;SDS011;10101;52.204;9.910;2023-05-07T00:19:56;29.17;;;17.93;;
19877;SDS011;10101;52.204;9.910;2023-05-07T00:22:24;35.57;;;18.83;;
19877;SDS011;10101;52.204;9.910;2023-05-07T00:24:51;31.93;;;18.53;;
19877;SDS011;10101;52.204;9.910;2023-05-07T00:27:18;31.03;;;17.77;;
19877;SDS011;10101;52.204;9.910;2023-05-07T00:29:44;31.33;;;18.00;;
19877;SDS011;10101;52.204;9.910;2023-05-07T00:32:11;28.33;;;17.07;;
19877;SDS011;10101;52.204;9.910;2023-05-07T00:34:38;30.13;;;18.03;;
19877;SDS011;10101;52.204;9.910;2023-05-07T00:37:05;32.00;;;17.63;;
19877;SDS011;10101;52.204;9.910;2023-05-07T00:39:33;32.53;;;18.47;;
19877;SDS011;10101;52.204;9.910;2023-05-07T00:42:00;31.73;;;17.90;;
19877;SDS011;10101;52.204;9.910;2023-05-07T00:44:27;30.97;;;18.17;;
19877;SDS011;10101;52.204;9.910;2023-05-07T00:46:54;35.13;;;18.20;;
19877;SDS011;10101;52.204;9.910;2023-05-07T00:49:22;32.37;;;18.30;;
19877;SDS011;10101;52.204;9.910;2023-05-07T00:51:53;32.73;;;17.70;;
19877;SDS011;10101;52.204;9.910;2023-05-07T00:54:20;33.03;;;18.53;;
19877;SDS011;10101;52.204;9.910;2023-05-07T00:56:48;29.83;;;17.00;;
19877;SDS011;10101;52.204;9.910;2023-05-07T00:59:16;34.50;;;18.53;;
19877;SDS011;10101;52.204;9.910;2023-05-07T01:01:43;32.13;;;17.83;;
19877;SDS011;10101;52.204;9.910;2023-05-07T01:04:10;31.77;;;17.53;;
19877;SDS011;10101;52.204;9.910;2023-05-07T01:06:37;33.33;;;19.20;;
19877;SDS011;10101;52.204;9.910;2023-05-07T01:09:04;31.50;;;18.27;;
19877;SDS011;10101;52.204;9.910;2023-05-07T01:11:31;33.47;;;19.03;;
19877;SDS011;10101;52.204;9.910;2023-05-07T01:13:59;31.10;;;17.17;;
19877;SDS011;10101;52.204;9.910;2023-05-07T01:16:26;33.17;;;17.97;;
19877;SDS011;10101;52.204;9.910;2023-05-07T01:18:53;33.00;;;17.73;;
19877;SDS011;10101;52.204;9.910;2023-05-07T01:21:20;36.30;;;19.03;;
19877;SDS011;10101;52.204;9.910;2023-05-07T01:23:52;36.37;;;17.80;;
19877;SDS011;10101;52.204;9.910;2023-05-07T01:26:20;36.93;;;18.67;;
19877;SDS011;10101;52.204;9.910;2023-05-07T01:28:48;33.53;;;18.20;;
19877;SDS011;10101;52.204;9.910;2023-05-07T01:31:15;32.83;;;17.87;;
19877;SDS011;10101;52.204;9.910;2023-05-07T01:33:44;30.73;;;17.37;;
19877;SDS011;10101;52.204;9.910;2023-05-07T01:36:11;30.57;;;17.27;;
19877;SDS011;10101;52.204;9.910;2023-05-07T01:38:40;29.07;;;16.27;;
19877;SDS011;10101;52.204;9.910;2023-05-07T01:41:09;28.10;;;14.73;;
19877;SDS011;10101;52.204;9.910;2023-05-07T01:43:38;27.23;;;15.57;;
19877;SDS011;10101;52.204;9.910;2023-05-07T01:46:06;25.47;;;14.27;;
19877;SDS011;10101;52.204;9.910;2023-05-07T01:48:34;25.03;;;13.73;;
19877;SDS011;10101;52.204;9.910;2023-05-07T01:51:02;30.53;;;14.57;;
19877;SDS011;10101;52.204;9.910;2023-05-07T01:53:34;26.90;;;14.43;;
19877;SDS011;10101;52.204;9.910;2023-05-07T01:56:02;20.93;;;12.60;;
19877;SDS011;10101;52.204;9.910;2023-05-07T01:58:30;21.83;;;13.57;;
19877;SDS011;10101;52.204;9.910;2023-05-07T02:00:57;24.03;;;13.13;;
19877;SDS011;10101;52.204;9.910;2023-05-07T02:03:23;25.20;;;13.50;;
19877;SDS011;10101;52.204;9.910;2023-05-07T02:05:50;25.70;;;14.37;;
19877;SDS011;10101;52.204;9.910;2023-05-07T02:08:17;25.07;;;13.10;;
19877;SDS011;10101;52.204;9.910;2023-05-07T02:10:44;22.80;;;13.17;;
19877;SDS011;10101;52.204;9.910;2023-05-07T02:13:11;21.43;;;12.53;;
19877;SDS011;10101;52.204;9.910;2023-05-07T02:15:39;21.23;;;12.57;;
19877;SDS011;10101;52.204;9.910;2023-05-07T02:18:07;18.93;;;12.00;;
19877;SDS011;10101;52.204;9.910;2023-05-07T02:20:34;17.50;;;11.37;;
19877;SDS011;10101;52.204;9.910;2023-05-07T02:23:01;20.80;;;11.67;;
19877;SDS011;10101;52.204;9.910;2023-05-07T02:25:28;21.23;;;12.40;;
19877;SDS011;10101;52.204;9.910;2023-05-07T02:27:55;19.20;;;12.23;;
19877;SDS011;10101;52.204;9.910;2023-05-07T02:30:22;22.90;;;12.03;;
19877;SDS011;10101;52.204;9.910;2023-05-07T02:32:51;16.93;;;10.87;;
19877;SDS011;10101;52.204;9.910;2023-05-07T02:35:18;23.93;;;12.17;;
19877;SDS011;10101;52.204;9.910;2023-05-07T02:37:44;19.10;;;11.40;;
19877;SDS011;10101;52.204;9.910;2023-05-07T02:40:11;17.27;;;11.13;;
19877;SDS011;10101;52.204;9.910;2023-05-07T02:42:38;18.70;;;11.87;;
19877;SDS011;10101;52.204;9.910;2023-05-07T02:45:05;17.03;;;10.70;;
19877;SDS011;10101;52.204;9.910;2023-05-07T02:47:33;17.90;;;10.50;;
19877;SDS011;10101;52.204;9.910;2023-05-07T02:50:01;17.73;;;10.93;;
19877;SDS011;10101;52.204;9.910;2023-05-07T02:52:28;18.57;;;11.47;;
19877;SDS011;10101;52.204;9.910;2023-05-07T02:54:55;17.33;;;11.10;;
19877;SDS011;10101;52.204;9.910;2023-05-07T02:57:22;19.70;;;13.43;;
19877;SDS011;10101;52.204;9.910;2023-05-07T02:59:48;18.93;;;12.03;;
19877;SDS011;10101;52.204;9.910;2023-05-07T03:02:15;18.50;;;12.30;;
19877;SDS011;10101;52.204;9.910;2023-05-07T03:04:42;20.07;;;12.40;;
19877;SDS011;10101;52.204;9.910;2023-05-07T03:07:10;21.57;;;11.23;;
19877;SDS011;10101;52.204;9.910;2023-05-07T03:09:37;19.07;;;11.37;;
19877;SDS011;10101;52.204;9.910;2023-05-07T03:12:03;20.43;;;12.87;;
19877;SDS011;10101;52.204;9.910;2023-05-07T03:14:30;20.97;;;12.70;;
19877;SDS011;10101;52.204;9.910;2023-05-07T03:16:57;20.27;;;12.97;;
19877;SDS011;10101;52.204;9.910;2023-05-07T03:19:24;20.87;;;13.27;;
19877;SDS011;10101;52.204;9.910;2023-05-07T03:21:50;20.80;;;13.17;;
19877;SDS011;10101;52.204;9.910;2023-05-07T03:24:18;21.50;;;12.77;;
19877;SDS011;10101;52.204;9.910;2023-05-07T03:26:45;21.53;;;12.47;;
19877;SDS011;10101;52.204;9.910;2023-05-07T03:29:12;20.93;;;12.00;;
19877;SDS011;10101;52.204;9.910;2023-05-07T03:31:38;18.83;;;11.83;;
19877;SDS011;10101;52.204;9.910;2023-05-07T03:34:05;20.03;;;12.13;;
19877;SDS011;10101;52.204;9.910;2023-05-07T03:36:32;19.30;;;11.87;;
19877;SDS011;10101;52.204;9.910;2023-05-07T03:38:59;18.90;;;12.53;;
19877;SDS011;10101;52.204;9.910;2023-05-07T03:41:27;18.40;;;12.20;;
19877;SDS011;10101;52.204;9.910;2023-05-07T03:43:54;18.87;;;11.93;;
19877;SDS011;10101;52.204;9.910;2023-05-07T03:46:21;20.27;;;12.40;;
19877;SDS011;10101;52.204;9.910;2023-05-07T03:48:48;17.73;;;11.80;;
19877;SDS011;10101;52.204;9.910;2023-05-07T03:51:15;18.80;;;12.13;;
19877;SDS011;10101;52.204;9.910;2023-05-07T03:53:41;20.37;;;12.37;;
19877;SDS011;10101;52.204;9.910;2023-05-07T03:56:08;23.00;;;12.27;;
19877;SDS011;10101;52.204;9.910;2023-05-07T03:58:36;19.73;;;11.80;;
19877;SDS011;10101;52.204;9.910;2023-05-07T04:01:03;20.50;;;11.47;;
19877;SDS011;10101;52.204;9.910;2023-05-07T04:03:30;16.97;;;10.97;;
19877;SDS011;10101;52.204;9.910;2023-05-07T04:05:56;17.53;;;10.77;;
19877;SDS011;10101;52.204;9.910;2023-05-07T04:08:23;20.67;;;11.80;;
19877;SDS011;10101;52.204;9.910;2023-05-07T04:10:54;19.43;;;11.37;;
19877;SDS011;10101;52.204;9.910;2023-05-07T04:13:21;18.47;;;11.20;;
19877;SDS011;10101;52.204;9.910;2023-05-07T04:15:49;16.67;;;11.27;;
19877;SDS011;10101;52.204;9.910;2023-05-07T04:18:15;17.43;;;11.03;;
19877;SDS011;10101;52.204;9.910;2023-05-07T04:20:42;18.90;;;11.43;;
19877;SDS011;10101;52.204;9.910;2023-05-07T04:23:09;17.57;;;10.93;;
19877;SDS011;10101;52.204;9.910;2023-05-07T04:25:36;16.97;;;11.50;;
19877;SDS011;10101;52.204;9.910;2023-05-07T04:28:03;19.70;;;10.77;;
19877;SDS011;10101;52.204;9.910;2023-05-07T04:30:31;18.07;;;10.77;;
19877;SDS011;10101;52.204;9.910;2023-05-07T04:32:59;13.90;;;8.93;;
19877;SDS011;10101;52.204;9.910;2023-05-07T04:35:26;15.93;;;9.83;;
19877;SDS011;10101;52.204;9.910;2023-05-07T04:37:52;16.40;;;9.63;;
19877;SDS011;10101;52.204;9.910;2023-05-07T04:40:19;20.07;;;10.83;;
19877;SDS011;10101;52.204;9.910;2023-05-07T04:42:46;15.47;;;9.83;;
19877;SDS011;10101;52.204;9.910;2023-05-07T04:45:13;15.93;;;9.93;;
19877;SDS011;10101;52.204;9.910;2023-05-07T04:47:40;14.83;;;9.60;;
19877;SDS011;10101;52.204;9.910;2023-05-07T04:50:08;15.67;;;10.00;;
19877;SDS011;10101;52.204;9.910;2023-05-07T04:52:36;16.17;;;9.60;;
19877;SDS011;10101;52.204;9.910;2023-05-07T04:55:02;16.30;;;9.83;;
19877;SDS011;10101;52.204;9.910;2023-05-07T04:57:30;14.10;;;9.43;;
19877;SDS011;10101;52.204;9.910;2023-05-07T04:59:56;15.80;;;9.37;;
19877;SDS011;10101;52.204;9.910;2023-05-07T05:02:23;14.97;;;9.23;;
19877;SDS011;10101;52.204;9.910;2023-05-07T05:04:50;16.73;;;9.40;;
19877;SDS011;10101;52.204;9.910;2023-05-07T05:07:18;14.00;;;8.97;;
19877;SDS011;10101;52.204;9.910;2023-05-07T05:09:45;14.33;;;8.97;;
19877;SDS011;10101;52.204;9.910;2023-05-07T05:12:11;15.10;;;8.87;;
19877;SDS011;10101;52.204;9.910;2023-05-07T05:14:38;12.77;;;8.30;;
19877;SDS011;10101;52.204;9.910;2023-05-07T05:17:05;13.50;;;8.27;;
19877;SDS011;10101;52.204;9.910;2023-05-07T05:19:32;17.63;;;8.47;;
19877;SDS011;10101;52.204;9.910;2023-05-07T05:21:58;13.23;;;8.50;;
19877;SDS011;10101;52.204;9.910;2023-05-07T05:24:27;15.50;;;8.60;;
19877;SDS011;10101;52.204;9.910;2023-05-07T05:26:54;12.40;;;7.90;;
19877;SDS011;10101;52.204;9.910;2023-05-07T05:29:20;12.07;;;8.07;;
19877;SDS011;10101;52.204;9.910;2023-05-07T05:31:47;13.13;;;7.87;;
19877;SDS011;10101;52.204;9.910;2023-05-07T05:34:14;12.13;;;7.57;;
19877;SDS011;10101;52.204;9.910;2023-05-07T05:36:42;12.57;;;7.77;;
19877;SDS011;10101;52.204;9.910;2023-05-07T05:39:09;12.00;;;7.37;;
19877;SDS011;10101;52.204;9.910;2023-05-07T05:41:37;12.70;;;7.63;;
19877;SDS011;10101;52.204;9.910;2023-05-07T05:44:04;12.07;;;7.37;;
19877;SDS011;10101;52.204;9.910;2023-05-07T05:46:31;11.23;;;7.13;;
19877;SDS011;10101;52.204;9.910;2023-05-07T05:48:58;10.53;;;6.73;;
19877;SDS011;10101;52.204;9.910;2023-05-07T05:51:25;10.03;;;6.80;;
19877;SDS011;10101;52.204;9.910;2023-05-07T05:53:52;13.03;;;7.30;;
19877;SDS011;10101;52.204;9.910;2023-05-07T05:56:19;10.27;;;7.00;;
19877;SDS011;10101;52.204;9.910;2023-05-07T05:58:47;11.80;;;7.10;;
19877;SDS011;10101;52.204;9.910;2023-05-07T06:01:14;9.67;;;6.80;;
19877;SDS011;10101;52.204;9.910;2023-05-07T06:03:41;10.07;;;6.80;;
19877;SDS011;10101;52.204;9.910;2023-05-07T06:06:07;11.13;;;7.03;;
19877;SDS011;10101;52.204;9.910;2023-05-07T06:08:34;9.23;;;6.77;;
19877;SDS011;10101;52.204;9.910;2023-05-07T06:11:01;10.47;;;6.73;;
19877;SDS011;10101;52.204;9.910;2023-05-07T06:13:28;9.13;;;6.43;;
19877;SDS011;10101;52.204;9.910;2023-05-07T06:15:56;8.30;;;6.47;;
19877;SDS011;10101;52.204;9.910;2023-05-07T06:18:23;9.73;;;6.53;;
19877;SDS011;10101;52.204;9.910;2023-05-07T06:20:53;10.00;;;6.40;;
19877;SDS011;10101;52.204;9.910;2023-05-07T06:23:19;9.37;;;6.40;;
19877;SDS011;10101;52.204;9.910;2023-05-07T06:25:47;8.27;;;5.93;;
19877;SDS011;10101;52.204;9.910;2023-05-07T06:28:15;8.50;;;6.23;;
19877;SDS011;10101;52.204;9.910;2023-05-07T06:30:42;9.53;;;6.20;;
19877;SDS011;10101;52.204;9.910;2023-05-07T06:33:10;7.93;;;5.70;;
19877;SDS011;10101;52.204;9.910;2023-05-07T06:35:37;8.93;;;5.97;;
19877;SDS011;10101;52.204;9.910;2023-05-07T06:38:03;8.20;;;5.90;;
19877;SDS011;10101;52.204;9.910;2023-05-07T06:40:30;8.00;;;5.57;;
19877;SDS011;10101;52.204;9.910;2023-05-07T06:42:57;8.40;;;5.60;;
19877;SDS011;10101;52.204;9.910;2023-05-07T06:45:24;9.70;;;6.17;;
19877;SDS011;10101;52.204;9.910;2023-05-07T06:47:50;7.27;;;5.73;;
19877;SDS011;10101;52.204;9.910;2023-05-07T06:50:19;7.50;;;5.07;;
19877;SDS011;10101;52.204;9.910;2023-05-07T06:52:46;8.37;;;5.30;;
19877;SDS011;10101;52.204;9.910;2023-05-07T06:55:12;12.37;;;5.80;;
19877;SDS011;10101;52.204;9.910;2023-05-07T06:57:39;7.87;;;5.77;;
19877;SDS011;10101;52.204;9.910;2023-05-07T07:00:07;7.87;;;5.23;;
19877;SDS011;10101;52.204;9.910;2023-05-07T07:02:34;8.40;;;5.60;;
19877;SDS011;10101;52.204;9.910;2023-05-07T07:05:02;7.63;;;5.87;;
19877;SDS011;10101;52.204;9.910;2023-05-07T07:07:31;8.33;;;5.93;;
19877;SDS011;10101;52.204;9.910;2023-05-07T07:09:57;7.20;;;5.00;;
19877;SDS011;10101;52.204;9.910;2023-05-07T07:12:24;8.30;;;5.60;;
19877;SDS011;10101;52.204;9.910;2023-05-07T07:14:51;7.57;;;5.50;;
19877;SDS011;10101;52.204;9.910;2023-05-07T07:17:18;7.97;;;5.40;;
19877;SDS011;10101;52.204;9.910;2023-05-07T07:19:44;8.17;;;5.90;;
19877;SDS011;10101;52.204;9.910;2023-05-07T07:22:11;7.73;;;5.07;;
19877;SDS011;10101;52.204;9.910;2023-05-07T07:24:39;7.97;;;5.70;;
19877;SDS011;10101;52.204;9.910;2023-05-07T07:27:06;7.70;;;5.67;;
19877;SDS011;10101;52.204;9.910;2023-05-07T07:29:32;9.97;;;6.10;;
19877;SDS011;10101;52.204;9.910;2023-05-07T07:31:59;8.07;;;6.17;;
19877;SDS011;10101;52.204;9.910;2023-05-07T07:34:26;8.73;;;6.23;;
19877;SDS011;10101;52.204;9.910;2023-05-07T07:36:53;8.10;;;6.20;;
19877;SDS011;10101;52.204;9.910;2023-05-07T07:39:20;7.40;;;5.97;;
19877;SDS011;10101;52.204;9.910;2023-05-07T07:41:48;8.40;;;6.50;;
19877;SDS011;10101;52.204;9.910;2023-05-07T07:44:14;6.73;;;5.57;;
19877;SDS011;10101;52.204;9.910;2023-05-07T07:46:42;6.40;;;5.57;;
19877;SDS011;10101;52.204;9.910;2023-05-07T07:49:08;8.00;;;5.77;;
19877;SDS011;10101;52.204;9.910;2023-05-07T07:51:35;7.47;;;5.97;;
19877;SDS011;10101;52.204;9.910;2023-05-07T07:54:02;8.17;;;6.40;;
19877;SDS011;10101;52.204;9.910;2023-05-07T07:56:29;8.57;;;7.00;;
19877;SDS011;10101;52.204;9.910;2023-05-07T07:58:59;9.47;;;7.47;;
19877;SDS011;10101;52.204;9.910;2023-05-07T08:01:26;9.47;;;7.63;;
19877;SDS011;10101;52.204;9.910;2023-05-07T08:03:53;9.27;;;7.53;;
19877;SDS011;10101;52.204;9.910;2023-05-07T08:06:19;10.40;;;6.70;;
19877;SDS011;10101;52.204;9.910;2023-05-07T08:08:46;10.77;;;8.20;;
19877;SDS011;10101;52.204;9.910;2023-05-07T08:11:13;10.07;;;7.67;;
19877;SDS011;10101;52.204;9.910;2023-05-07T08:13:40;10.40;;;8.17;;
19877;SDS011;10101;52.204;9.910;2023-05-07T08:16:08;11.10;;;7.67;;
19877;SDS011;10101;52.204;9.910;2023-05-07T08:18:35;12.10;;;7.40;;
19877;SDS011;10101;52.204;9.910;2023-05-07T08:21:02;10.63;;;7.40;;
19877;SDS011;10101;52.204;9.910;2023-05-07T08:23:29;8.37;;;6.90;;
19877;SDS011;10101;52.204;9.910;2023-05-07T08:25:56;9.63;;;7.37;;
19877;SDS011;10101;52.204;9.910;2023-05-07T08:28:24;9.33;;;7.07;;
19877;SDS011;10101;52.204;9.910;2023-05-07T08:30:50;10.73;;;7.30;;
19877;SDS011;10101;52.204;9.910;2023-05-07T08:33:18;9.27;;;6.40;;
19877;SDS011;10101;52.204;9.910;2023-05-07T08:35:45;8.23;;;6.23;;
19877;SDS011;10101;52.204;9.910;2023-05-07T08:38:12;8.57;;;6.70;;
19877;SDS011;10101;52.204;9.910;2023-05-07T08:40:39;8.77;;;6.90;;
19877;SDS011;10101;52.204;9.910;2023-05-07T08:43:06;8.03;;;6.70;;
19877;SDS011;10101;52.204;9.910;2023-05-07T08:45:34;9.50;;;6.93;;
19877;SDS011;10101;52.204;9.910;2023-05-07T08:48:02;8.73;;;6.70;;
19877;SDS011;10101;52.204;9.910;2023-05-07T08:50:32;8.53;;;6.57;;
19877;SDS011;10101;52.204;9.910;2023-05-07T08:53:02;7.83;;;6.40;;
19877;SDS011;10101;52.204;9.910;2023-05-07T08:55:29;8.13;;;6.43;;
19877;SDS011;10101;52.204;9.910;2023-05-07T08:57:56;9.57;;;6.57;;
19877;SDS011;10101;52.204;9.910;2023-05-07T09:00:23;8.83;;;7.17;;
19877;SDS011;10101;52.204;9.910;2023-05-07T09:02:50;8.33;;;6.20;;
19877;SDS011;10101;52.204;9.910;2023-05-07T09:05:18;9.93;;;7.07;;
19877;SDS011;10101;52.204;9.910;2023-05-07T09:07:46;7.90;;;6.30;;
19877;SDS011;10101;52.204;9.910;2023-05-07T09:10:14;8.70;;;6.77;;
19877;SDS011;10101;52.204;9.910;2023-05-07T09:12:41;8.20;;;6.73;;
19877;SDS011;10101;52.204;9.910;2023-05-07T09:15:08;10.03;;;7.00;;
19877;SDS011;10101;52.204;9.910;2023-05-07T09:17:35;9.13;;;6.97;;
19877;SDS011;10101;52.204;9.910;2023-05-07T09:20:02;9.40;;;7.17;;
19877;SDS011;10101;52.204;9.910;2023-05-07T09:22:31;10.33;;;7.33;;
19877;SDS011;10101;52.204;9.910;2023-05-07T09:24:59;9.87;;;7.67;;
19877;SDS011;10101;52.204;9.910;2023-05-07T09:27:26;11.23;;;6.60;;
19877;SDS011;10101;52.204;9.910;2023-05-07T09:29:53;8.97;;;7.00;;
19877;SDS011;10101;52.204;9.910;2023-05-07T09:32:19;12.40;;;7.53;;
19877;SDS011;10101;52.204;9.910;2023-05-07T09:34:46;8.80;;;6.87;;
19877;SDS011;10101;52.204;9.910;2023-05-07T09:37:13;10.30;;;7.83;;
19877;SDS011;10101;52.204;9.910;2023-05-07T09:39:40;11.10;;;8.10;;
19877;SDS011;10101;52.204;9.910;2023-05-07T09:42:08;9.50;;;7.57;;
19877;SDS011;10101;52.204;9.910;2023-05-07T09:44:36;13.77;;;8.63;;
19877;SDS011;10101;52.204;9.910;2023-05-07T09:47:04;11.50;;;7.67;;
19877;SDS011;10101;52.204;9.910;2023-05-07T09:49:33;12.80;;;8.57;;
19877;SDS011;10101;52.204;9.910;2023-05-07T09:52:02;11.33;;;8.57;;
19877;SDS011;10101;52.204;9.910;2023-05-07T09:54:31;12.33;;;8.47;;
19877;SDS011;10101;52.204;9.910;2023-05-07T09:56:59;10.63;;;8.20;;
19877;SDS011;10101;52.204;9.910;2023-05-07T09:59:30;13.60;;;8.90;;
19877;SDS011;10101;52.204;9.910;2023-05-07T10:01:58;10.30;;;8.27;;
19877;SDS011;10101;52.204;9.910;2023-05-07T10:04:26;10.73;;;8.20;;
19877;SDS011;10101;52.204;9.910;2023-05-07T10:06:53;12.17;;;8.67;;
19877;SDS011;10101;52.204;9.910;2023-05-07T10:09:20;9.17;;;7.63;;
19877;SDS011;10101;52.204;9.910;2023-05-07T10:11:47;11.87;;;8.70;;
19877;SDS011;10101;52.204;9.910;2023-05-07T10:14:15;9.27;;;7.80;;
19877;SDS011;10101;52.204;9.910;2023-05-07T10:16:44;10.73;;;8.27;;
19877;SDS011;10101;52.204;9.910;2023-05-07T10:19:11;9.63;;;7.40;;
19877;SDS011;10101;52.204;9.910;2023-05-07T10:21:39;10.43;;;8.30;;
19877;SDS011;10101;52.204;9.910;2023-05-07T10:24:09;9.73;;;7.50;;
19877;SDS011;10101;52.204;9.910;2023-05-07T10:26:39;9.00;;;7.57;;
19877;SDS011;10101;52.204;9.910;2023-05-07T10:29:11;10.77;;;7.50;;
19877;SDS011;10101;52.204;9.910;2023-05-07T10:31:50;11.23;;;8.33;;
19877;SDS011;10101;52.204;9.910;2023-05-07T10:34:24;9.37;;;7.67;;
19877;SDS011;10101;52.204;9.910;2023-05-07T10:36:55;13.50;;;7.63;;
19877;SDS011;10101;52.204;9.910;2023-05-07T10:39:22;10.77;;;8.23;;
19877;SDS011;10101;52.204;9.910;2023-05-07T10:41:49;8.27;;;7.03;;
19877;SDS011;10101;52.204;9.910;2023-05-07T10:44:25;10.17;;;7.50;;
19877;SDS011;10101;52.204;9.910;2023-05-07T10:47:05;9.80;;;7.57;;
19877;SDS011;10101;52.204;9.910;2023-05-07T10:49:34;9.90;;;7.50;;
19877;SDS011;10101;52.204;9.910;2023-05-07T10:52:11;10.13;;;7.20;;
19877;SDS011;10101;52.204;9.910;2023-05-07T10:54:38;8.90;;;7.50;;
19877;SDS011;10101;52.204;9.910;2023-05-07T11:00:01;9.10;;;7.37;;
19877;SDS011;10101;52.204;9.910;2023-05-07T11:05:34;10.97;;;7.70;;
19877;SDS011;10101;52.204;9.910;2023-05-07T11:08:01;8.27;;;6.87;;
19877;SDS011;10101;52.204;9.910;2023-05-07T11:13:14;9.03;;;6.47;;
19877;SDS011;10101;52.204;9.910;2023-05-07T11:15:42;7.83;;;6.60;;
19877;SDS011;10101;52.204;9.910;2023-05-07T11:18:12;7.97;;;6.57;;
19877;SDS011;10101;52.204;9.910;2023-05-07T11:20:48;10.20;;;6.93;;
19877;SDS011;10101;52.204;9.910;2023-05-07T11:26:41;10.50;;;7.07;;
19877;SDS011;10101;52.204;9.910;2023-05-07T11:29:13;9.73;;;7.03;;
19877;SDS011;10101;52.204;9.910;2023-05-07T11:31:41;9.50;;;6.87;;
19877;SDS011;10101;52.204;9.910;2023-05-07T11:34:09;9.40;;;7.07;;
19877;SDS011;10101;52.204;9.910;2023-05-07T11:36:41;8.17;;;6.83;;
19877;SDS011;10101;52.204;9.910;2023-05-07T11:39:27;7.33;;;6.37;;
19877;SDS011;10101;52.204;9.910;2023-05-07T11:41:56;8.37;;;6.60;;
19877;SDS011;10101;52.204;9.910;2023-05-07T11:44:23;8.60;;;6.93;;
19877;SDS011;10101;52.204;9.910;2023-05-07T11:46:50;7.83;;;6.50;;
19877;SDS011;10101;52.204;9.910;2023-05-07T11:49:18;7.30;;;6.40;;
19877;SDS011;10101;52.204;9.910;2023-05-07T11:51:45;8.63;;;6.50;;
19877;SDS011;10101;52.204;9.910;2023-05-07T11:54:15;7.83;;;5.90;;
19877;SDS011;10101;52.204;9.910;2023-05-07T11:56:43;7.17;;;5.57;;
19877;SDS011;10101;52.204;9.910;2023-05-07T11:59:11;7.57;;;5.60;;
19877;SDS011;10101;52.204;9.910;2023-05-07T12:01:38;6.40;;;5.50;;
19877;SDS011;10101;52.204;9.910;2023-05-07T12:04:04;6.23;;;5.27;;
19877;SDS011;10101;52.204;9.910;2023-05-07T12:06:35;7.63;;;5.50;;
19877;SDS011;10101;52.204;9.910;2023-05-07T12:09:03;7.10;;;5.87;;
19877;SDS011;10101;52.204;9.910;2023-05-07T12:11:32;6.23;;;5.63;;
19877;SDS011;10101;52.204;9.910;2023-05-07T12:13:58;5.40;;;4.73;;
19877;SDS011;10101;52.204;9.910;2023-05-07T12:16:25;5.83;;;5.10;;
19877;SDS011;10101;52.204;9.910;2023-05-07T12:18:53;4.90;;;4.40;;
19877;SDS011;10101;52.204;9.910;2023-05-07T12:21:20;6.93;;;4.90;;
19877;SDS011;10101;52.204;9.910;2023-05-07T12:23:49;5.80;;;4.90;;
19877;SDS011;10101;52.204;9.910;2023-05-07T12:26:15;5.33;;;4.70;;
19877;SDS011;10101;52.204;9.910;2023-05-07T12:28:42;5.73;;;5.10;;
19877;SDS011;10101;52.204;9.910;2023-05-07T12:31:09;5.47;;;4.93;;
19877;SDS011;10101;52.204;9.910;2023-05-07T12:33:35;6.30;;;5.23;;
19877;SDS011;10101;52.204;9.910;2023-05-07T12:36:03;5.97;;;5.00;;
19877;SDS011;10101;52.204;9.910;2023-05-07T12:38:35;7.57;;;5.10;;
19877;SDS011;10101;52.204;9.910;2023-05-07T12:41:05;5.37;;;4.47;;
19877;SDS011;10101;52.204;9.910;2023-05-07T12:43:33;5.87;;;5.00;;
19877;SDS011;10101;52.204;9.910;2023-05-07T12:46:00;5.83;;;5.23;;
19877;SDS011;10101;52.204;9.910;2023-05-07T12:48:28;5.83;;;5.17;;
19877;SDS011;10101;52.204;9.910;2023-05-07T12:50:56;6.17;;;5.37;;
19877;SDS011;10101;52.204;9.910;2023-05-07T12:53:24;7.87;;;6.00;;
19877;SDS011;10101;52.204;9.910;2023-05-07T12:55:53;6.70;;;5.20;;
19877;SDS011;10101;52.204;9.910;2023-05-07T12:58:24;8.60;;;6.37;;
19877;SDS011;10101;52.204;9.910;2023-05-07T13:00:52;8.43;;;6.23;;
19877;SDS011;10101;52.204;9.910;2023-05-07T13:03:23;7.80;;;6.87;;
19877;SDS011;10101;52.204;9.910;2023-05-07T13:05:51;7.27;;;6.23;;
19877;SDS011;10101;52.204;9.910;2023-05-07T13:08:27;9.87;;;6.63;;
19877;SDS011;10101;52.204;9.910;2023-05-07T13:10:57;7.57;;;6.77;;
19877;SDS011;10101;52.204;9.910;2023-05-07T13:13:26;7.60;;;6.80;;
19877;SDS011;10101;52.204;9.910;2023-05-07T13:15:52;8.13;;;7.33;;
19877;SDS011;10101;52.204;9.910;2023-05-07T13:18:19;7.90;;;7.10;;
19877;SDS011;10101;52.204;9.910;2023-05-07T13:20:46;8.03;;;7.23;;
19877;SDS011;10101;52.204;9.910;2023-05-07T13:23:12;7.17;;;6.47;;
19877;SDS011;10101;52.204;9.910;2023-05-07T13:25:39;7.47;;;6.67;;
19877;SDS011;10101;52.204;9.910;2023-05-07T13:28:06;7.10;;;6.23;;
19877;SDS011;10101;52.204;9.910;2023-05-07T13:30:34;7.63;;;6.40;;
19877;SDS011;10101;52.204;9.910;2023-05-07T13:33:01;7.40;;;6.50;;
19877;SDS011;10101;52.204;9.910;2023-05-07T13:35:27;7.27;;;6.63;;
19877;SDS011;10101;52.204;9.910;2023-05-07T13:37:54;8.13;;;6.50;;
19877;SDS011;10101;52.204;9.910;2023-05-07T13:40:21;6.53;;;5.93;;
19877;SDS011;10101;52.204;9.910;2023-05-07T13:42:49;8.63;;;7.23;;
19877;SDS011;10101;52.204;9.910;2023-05-07T13:45:16;6.93;;;6.23;;
19877;SDS011;10101;52.204;9.910;2023-05-07T13:47:44;7.67;;;6.37;;
19877;SDS011;10101;52.204;9.910;2023-05-07T13:50:11;7.00;;;6.30;;
19877;SDS011;10101;52.204;9.910;2023-05-07T13:52:40;9.93;;;6.90;;
19877;SDS011;10101;52.204;9.910;2023-05-07T13:55:08;10.03;;;6.50;;
19877;SDS011;10101;52.204;9.910;2023-05-07T13:57:35;7.00;;;6.30;;
19877;SDS011;10101;52.204;9.910;2023-05-07T14:00:02;6.63;;;5.90;;
19877;SDS011;10101;52.204;9.910;2023-05-07T14:02:30;7.93;;;6.07;;
19877;SDS011;10101;52.204;9.910;2023-05-07T14:04:58;6.17;;;5.57;;
19877;SDS011;10101;52.204;9.910;2023-05-07T14:07:25;6.10;;;5.47;;
19877;SDS011;10101;52.204;9.910;2023-05-07T14:09:51;6.30;;;5.40;;
19877;SDS011;10101;52.204;9.910;2023-05-07T14:12:18;6.57;;;5.50;;
19877;SDS011;10101;52.204;9.910;2023-05-07T14:14:45;6.80;;;5.83;;
19877;SDS011;10101;52.204;9.910;2023-05-07T14:17:11;6.33;;;5.60;;
19877;SDS011;10101;52.204;9.910;2023-05-07T14:19:38;5.97;;;5.37;;
19877;SDS011;10101;52.204;9.910;2023-05-07T14:22:07;6.57;;;5.27;;
19877;SDS011;10101;52.204;9.910;2023-05-07T14:24:34;5.95;;;5.30;;
19877;SDS011;10101;52.204;9.910;2023-05-07T14:27:02;5.85;;;5.18;;
19877;SDS011;10101;52.204;9.910;2023-05-07T14:29:28;6.22;;;5.43;;
19877;SDS011;10101;52.204;9.910;2023-05-07T14:31:55;7.28;;;5.80;;
19877;SDS011;10101;52.204;9.910;2023-05-07T14:34:22;6.18;;;5.47;;
19877;SDS011;10101;52.204;9.910;2023-05-07T14:36:49;8.30;;;6.15;;
19877;SDS011;10101;52.204;9.910;2023-05-07T14:39:18;6.75;;;6.05;;
19877;SDS011;10101;52.204;9.910;2023-05-07T14:41:44;8.13;;;5.65;;
19877;SDS011;10101;52.204;9.910;2023-05-07T14:44:11;7.10;;;6.28;;
19877;SDS011;10101;52.204;9.910;2023-05-07T14:46:38;8.70;;;7.05;;
19877;SDS011;10101;52.204;9.910;2023-05-07T14:49:04;7.40;;;6.30;;